Jump to content

AIP

Donating Member
  • Posts

    1,757
  • Joined

  • Last visited

  • Days Won

    7

AIP last won the day on July 25 2021

AIP had the most liked content!

Reputation

136 Excellent

Recent Profile Visitors

4,993 profile views
  1. I have thought and said this for awhile, wouldn't society as a whole be better served if social media disappeared or was made to be extinct ??
  2. Is there no Canadians WJ could hire ??
  3. I unfortunately let mine expire by a month. Filled out and paid for renewal August 29, 2021. Still nothing back, check the website pretty much every week for notification. Nada so far.
  4. AIP

    RCAF News

    A lesser benefit, would be a 9000 foot runway in YEV would allow for use as an ETOPS alternate airport.
  5. On top of all of that, hasn't Premier Horgan decided to have an inquiry as to "Why" the gas prices are so high ??? Think about that one for a minute.
  6. And if that is their hill, lets just hope that is where they stay.
  7. Sounds like something Trudeau and the Liberals would be trumpeting.
  8. All any jurisdiction could have possibly have done in this area gone in a very brief period of time. What magnitude of difference I wonder ?? 10 X, 1000 X 1,000,000 times more into the atmosphere in one fell swoop ??
  9. A slow day on the 401 today. Data at: 1557 UTC 17 Jan 2022 CYYZ 171500Z 35018G24KT 1/2SM R33L/3500V4000FT/N R33R/2600V3000FT/N SN VV006 M05/M06 A2924 RMK SN8 /S15/ SLP912 CYYZ 171417Z 35016G23KT 3/8SM R33L/2800V3500FT/N R33R/2200V2400FT/N SN VV003 M06/M06 A2925 RMK SN8 SLP916 CYYZ 171400Z 35017G23KT 1/8SM R33L/2400V3000FT/N R33R/1400V1800FT/N +SN VV002 M06/M06 A2925 RMK SN8 /S11/ SLP916 CYYZ 171327Z 35018G28KT 1/8SM R33L/1600V2000FT/N R33R/1100V1400FT/N +SN VV002 M06/M06 A2925 RMK SN8 SLP915 CYYZ 171300Z 35017G67KT 1/8SM R33L/1200V1400FT/N R33R/0600V1100FT/N +SN VV001 M06/M06 A2926 RMK SN8 /S06/ SLP918 CYYZ 171215Z 35019KT 1/8SM R33L/1200V1600FT/N R33R/1800V2200FT/N +SN VV002 M06/M06 A2927 RMK SN8 SLP921 CYYZ 171200Z 35017G23KT 1/4SM R33L/1600V2200FT/N R33R/1200V1400FT/N +SN VV002 M06/M06 A2927 RMK SN8 /S011/ SLP922 CYOW 171551Z 03018KT 1/4SM R07/3000V5000FT/D R32/2800V4000FT/D +SN BLSN VV003 M06/M07 A2924 RMK SN8 PRESFR SLP912 CYOW 171500Z 03016G22KT 1/2SM R07/3000V5500FT/D R32/3500V5000FT/U SN DRSN VV004 M06/M07 A2930 RMK SN8 /S26/ SLP932 CYOW 171446Z 03016G22KT 1/2SM R07/3500V6000FT/U R32/3000V4000FT/N SN VV004 M06/M08 A2930 RMK SN8 SLP932 CYOW 171400Z 03016KT 1/8SM R07/1100V1400FT/N +SN BLSN VV001 M07/M08 A2934 RMK SN8 /S17/ PRESFR SLP946 CYOW 171315Z 04014G23KT 1/8SM R07/1400V1800FT/N R32/1200V1800FT/N +SN DRSN VV001 M06/M07 A2939 RMK SN8 PRESFR SLP964 CYOW 171300Z 05017KT 1/4SM R07/2200V2600FT/N R32/2200V2600FT/N +SN DRSN VV002 M06/M08 A2942 RMK SN8 /S05/ SLP973 CYOW 171253Z 06015G22KT 1/4SM R07/3500V4500FT/D R32/3000V3500FT/N +SN DRSN VV002 M07/M08 A2943 RMK SN8 SLP977 CYOW 171243Z 05015G21KT 1/2SM R07/4000V5500FT/D R32/3000V4000FT/N SN DRSN VV003 M07/M08 A2943 RMK SN8 SLP976 CYOW 171226Z 05017G25KT 3/4SM R07/P6000FT/D R32/5000VP6000FT/D -SN DRSN VV005 M08/M09 A2942 RMK SN8 SLP973 CYOW 171200Z 05021KT 1SM R07/P6000FT/D R32/P6000FT/D -SN DRSN VV008 M08/M10 A2943 RMK SN8 /S08/ PRESFR SLP979 CYTR 171543Z 04013G18KT 1/4SM SN +BLSN VV002 M07/M08 A2918 RMK SN8 VIS VRB 1/8-3/8 SLP886 CYTR 171500Z 03013KT 1/4SM +SN +BLSN VV002 M08/M09 A2922 RMK SN8 VIS VRB 1/8-3/8 /S08/ SLP899 CYTR 171400Z 04018KT 1/4SM SN +BLSN VV002 M07/M09 A2924 RMK SN8 VIS VRB 1/8-3/8 /S06/ SLP906 CYTR 171300Z 04016G24KT 1/4SM +SN +BLSN VV002 M07/M08 A2925 RMK SN8 VIS VRB 1/8-3/8 /S03/ SLP909 CYTR 171200Z CCA 03018G24KT 1/4SM +SN +BLSN VV002 M07/M08 A2929 RMK SN8 VIS VRB 1/8-3/8 PRESFR /S21/ SLP924 CYUL 171535Z 02023G30KT 1 1/2SM -SN BLSN BKN011 BKN024 OVC035 M08/M10 A2930 RMK SF5SC2SC1 PRESFR SLP925 CYUL 171500Z 02027KT 1 1/2SM -SN BLSN FEW020 OVC037 M08/M10 A2934 RMK SN1SC1SC6 SLP939 CYUL 171433Z 03024KT 1 1/2SM R06L/5000VP6000FT/U R06R/4500VP6000FT/U -SN BLSN OVC050 M09/M10 A2935 RMK SN1NS7 SLP945 CYUL 171421Z 03024G30KT 3/4SM R06L/5000VP6000FT/D R06R/2400VP6000FT/D -SN BLSN OVC022 M09/M11 A2936 RMK SN4NS4 PRESFR SLP947 CYUL 171407Z 03021KT 5/8SM R06L/2800V5000FT/U R06R/3000V6000FT/U -SN BLSN OVC025 M09/M11 A2938 RMK SN6NS2 PRESFR SLP955 CYUL 171400Z 02020KT 3/8SM R06L/2600V3000FT/N R06R/3500FT/N SN BLSN VV004 M09/M11 A2940 RMK SN8 /S05/ PRESFR SLP959 CYUL 171313Z 03018KT 1/4SM R06L/3000V4000FT/D R06R/3000V4500FT/D +SN BLSN VV002 M10/M12 A2947 RMK SN8 PRESFR SLP983 CYUL 171300Z 03019KT 1/2SM R06L/4000V4500FT/N R06R/3500V4500FT/D SN BLSN VV003 M10/M12 A2949 RMK SN8 /S01/ SLP990 CYUL 171252Z 03019KT 1/2SM R06L/4000V4500FT/N R06R/3500V5000FT/D SN BLSN VV003 M10/M12 A2949 RMK SN8 PRESFR SLP991 CYUL 171239Z 03020KT 5/8SM R06L/6000FT/D R06R/5000VP6000FT/D -SN BLSN OVC012 M10/M12 A2951 RMK SN5NS3 PRESFR SLP999 CYUL 171200Z 03019KT 5/8SM R06L/P6000FT/D R06R/3500VP6000FT/U -SN BLSN OVC015 M12/M14 A2957 RMK SN4NS4 /S03/ SLP017
  10. Geez, I wonder what kind of footprint that will leave behind ?? LOL
  11. I wonder if the individual CBSA agent you come across will interpret it that way ??
  12. Received two texts from "Costco" about "my" rebate this week. DELETE
  13. Just might be the best story of 2021. Long awaited, and looking forward to its views of the heavens.
  14. Have read this 4 times. Does it say "there is an additional pilot" in addition to the required two ?? Or is it saying "this is why we are mandated to send them out in pairs at a minimum ??
×
×
  • Create New...